createdAt,value
2023-04-18T00:00:48.883Z,4.00
2023-04-18T00:03:22.039Z,3.00
2023-04-18T00:05:51.315Z,3.60
2023-04-18T00:08:20.064Z,3.00
2023-04-18T00:10:49.011Z,4.20
2023-04-18T00:13:18.464Z,3.60
2023-04-18T00:15:47.500Z,7.00
2023-04-18T00:18:17.402Z,6.00
2023-04-18T00:20:47.963Z,4.60
2023-04-18T00:23:16.513Z,2.00
2023-04-18T00:25:45.528Z,4.00
2023-04-18T00:28:14.225Z,5.20
2023-04-18T00:30:43.164Z,6.20
2023-04-18T00:33:11.759Z,6.00
2023-04-18T00:35:40.947Z,7.00
2023-04-18T00:38:11.234Z,6.00
2023-04-18T00:40:41.933Z,5.20
2023-04-18T00:43:10.509Z,5.60
2023-04-18T00:45:43.075Z,4.20
2023-04-18T00:48:12.879Z,5.60
2023-04-18T00:50:41.943Z,6.00
2023-04-18T00:53:12.510Z,6.00
2023-04-18T00:55:42.272Z,4.20
2023-04-18T00:58:10.931Z,5.80
2023-04-18T01:00:39.747Z,4.40
2023-04-18T01:03:10.732Z,3.00
2023-04-18T01:05:40.165Z,4.20
2023-04-18T01:08:08.730Z,4.20
2023-04-18T01:10:39.022Z,3.40
2023-04-18T01:13:18.258Z,4.20
2023-04-18T01:15:49.884Z,3.00
2023-04-18T01:18:19.307Z,3.00
2023-04-18T01:20:49.956Z,2.80
2023-04-18T01:23:19.862Z,4.00
2023-04-18T01:25:50.610Z,2.20
2023-04-18T01:28:21.406Z,3.80
2023-04-18T01:30:50.740Z,3.00
2023-04-18T01:33:19.403Z,4.20
2023-04-18T01:35:49.950Z,4.20
2023-04-18T01:38:18.516Z,3.00
2023-04-18T01:40:47.905Z,1.00
2023-04-18T01:43:18.238Z,3.00
2023-04-18T01:45:47.225Z,4.40
2023-04-18T01:48:15.819Z,5.40
2023-04-18T01:50:45.304Z,1.00
2023-04-18T01:53:14.443Z,5.20
2023-04-18T01:55:46.141Z,4.80
2023-04-18T01:58:15.750Z,2.80
2023-04-18T02:00:46.272Z,5.20
2023-04-18T02:03:15.051Z,3.40
2023-04-18T02:05:44.277Z,3.00
2023-04-18T02:08:13.034Z,4.20
2023-04-18T02:10:42.730Z,4.20
2023-04-18T02:13:11.376Z,3.00
2023-04-18T02:15:40.362Z,3.00
2023-04-18T02:18:11.641Z,3.00
2023-04-18T02:20:41.886Z,3.40
2023-04-18T02:23:10.917Z,2.00
2023-04-18T02:25:39.752Z,3.00
2023-04-18T02:28:08.363Z,2.80
2023-04-18T02:30:37.202Z,2.00
2023-04-18T02:33:05.790Z,2.40
2023-04-18T02:35:38.387Z,2.00
2023-04-18T02:38:06.924Z,2.40
2023-04-18T02:40:35.887Z,2.40
2023-04-18T02:43:04.460Z,3.00
2023-04-18T02:45:33.816Z,3.00
2023-04-18T02:48:02.650Z,2.00
2023-04-18T02:50:32.188Z,2.00
2023-04-18T02:53:02.297Z,2.00
2023-04-18T02:55:43.759Z,1.00
2023-04-18T02:58:13.345Z,2.00
2023-04-18T03:01:00.694Z,1.00
2023-04-18T03:03:46.633Z,1.00
2023-04-18T03:06:27.332Z,0.40
2023-04-18T03:08:57.572Z,1.00
2023-04-18T03:11:27.803Z,1.00
2023-04-18T03:13:57.700Z,1.00
2023-04-18T03:16:32.322Z,1.00
2023-04-18T03:19:01.602Z,1.00
2023-04-18T03:21:31.573Z,1.40
2023-04-18T03:24:01.707Z,1.00
2023-04-18T03:26:30.717Z,1.00
2023-04-18T03:28:59.389Z,1.00
2023-04-18T03:31:28.319Z,7.00
2023-04-18T03:33:57.255Z,1.00
2023-04-18T03:36:27.386Z,1.00
2023-04-18T03:38:56.627Z,1.00
2023-04-18T03:41:28.215Z,1.00
2023-04-18T03:43:59.076Z,1.20
2023-04-18T03:46:29.150Z,1.00
2023-04-18T03:48:58.923Z,1.20
2023-04-18T03:51:28.598Z,1.00
2023-04-18T03:53:58.158Z,8.00
2023-04-18T03:56:28.541Z,1.00
2023-04-18T03:58:58.965Z,1.00
2023-04-18T04:01:28.505Z,1.00
2023-04-18T04:03:57.307Z,2.00
2023-04-18T04:06:27.453Z,1.80
2023-04-18T04:08:56.647Z,0.80
2023-04-18T04:11:29.207Z,0.00
2023-04-18T04:13:57.933Z,0.00
2023-04-18T04:16:32.962Z,1.00
2023-04-18T04:19:02.178Z,2.00
2023-04-18T04:21:38.561Z,1.00
2023-04-18T04:24:10.098Z,0.00
2023-04-18T04:26:44.237Z,1.00
2023-04-18T04:29:16.450Z,0.80
2023-04-18T04:31:48.320Z,2.00
2023-04-18T04:34:25.588Z,3.00
2023-04-18T04:36:56.187Z,6.00
2023-04-18T04:39:26.683Z,1.00
2023-04-18T04:42:17.728Z,2.00
2023-04-18T04:44:55.885Z,1.80
2023-04-18T04:47:26.435Z,1.00
2023-04-18T04:49:56.174Z,2.00
2023-04-18T04:52:25.124Z,1.20
2023-04-18T04:54:53.757Z,1.40
2023-04-18T04:57:26.894Z,1.00
2023-04-18T04:59:55.493Z,1.00
2023-04-18T05:02:25.111Z,2.00
2023-04-18T05:04:53.783Z,2.00
2023-04-18T05:07:22.701Z,2.40
2023-04-18T05:09:53.216Z,1.00
2023-04-18T05:12:22.135Z,2.00
2023-04-18T05:14:52.160Z,2.40
2023-04-18T05:17:21.030Z,2.00
2023-04-18T05:19:49.663Z,1.80
2023-04-18T05:22:18.563Z,3.00
2023-04-18T05:24:47.640Z,3.20
2023-04-18T05:27:18.112Z,1.60
2023-04-18T05:29:47.852Z,1.00
2023-04-18T05:32:18.272Z,2.00
2023-04-18T05:34:46.988Z,3.00
2023-04-18T05:37:16.263Z,1.00
2023-04-18T05:39:45.054Z,1.20
2023-04-18T05:42:14.050Z,1.80
2023-04-18T05:44:42.619Z,1.80
2023-04-18T05:47:11.501Z,1.00
2023-04-18T05:49:41.565Z,3.00
2023-04-18T05:52:11.430Z,1.80
2023-04-18T05:54:40.075Z,2.80
2023-04-18T05:57:08.953Z,2.00
2023-04-18T05:59:37.734Z,2.00
2023-04-18T06:02:13.151Z,1.20
2023-04-18T06:04:44.157Z,3.00
2023-04-18T06:07:13.313Z,2.00
2023-04-18T06:09:42.146Z,3.80
2023-04-18T06:12:11.264Z,2.00
2023-04-18T06:14:40.020Z,1.00
2023-04-18T06:17:10.196Z,2.00
2023-04-18T06:19:40.580Z,2.20
2023-04-18T06:22:10.935Z,2.00
2023-04-18T06:24:39.686Z,2.60
2023-04-18T06:27:15.041Z,3.40
2023-04-18T06:29:49.318Z,3.40
2023-04-18T06:32:18.401Z,3.00
2023-04-18T06:34:47.034Z,2.40
2023-04-18T06:37:18.007Z,3.00
2023-04-18T06:39:46.909Z,4.00
2023-04-18T06:42:15.956Z,2.80
2023-04-18T06:44:49.554Z,3.00
2023-04-18T06:47:18.655Z,2.00
2023-04-18T06:49:47.415Z,3.00
2023-04-18T06:52:17.625Z,3.00
2023-04-18T06:54:46.165Z,3.00
2023-04-18T06:57:15.313Z,3.80
2023-04-18T06:59:44.025Z,3.00
2023-04-18T07:02:13.400Z,4.00
2023-04-18T07:04:42.354Z,1.00
2023-04-18T07:07:11.471Z,2.00
2023-04-18T07:09:41.508Z,3.80
2023-04-18T07:12:10.480Z,8.00
2023-04-18T07:14:39.119Z,3.00
2023-04-18T07:17:08.686Z,4.00
2023-04-18T07:19:37.390Z,3.00
2023-04-18T07:22:06.433Z,3.00
2023-04-18T07:24:35.130Z,6.00
2023-04-18T07:27:05.808Z,4.80
2023-04-18T07:29:34.457Z,6.40
2023-04-18T07:32:05.171Z,4.00
2023-04-18T07:34:36.364Z,4.40
2023-04-18T07:37:05.392Z,6.00
2023-04-18T07:39:36.159Z,4.00
2023-04-18T07:42:06.983Z,4.40
2023-04-18T07:44:36.789Z,5.20
2023-04-18T07:47:10.027Z,6.00
2023-04-18T07:49:39.490Z,6.00
2023-04-18T07:52:08.604Z,4.80
2023-04-18T07:54:37.203Z,6.00
2023-04-18T07:57:07.497Z,4.80
2023-04-18T07:59:36.296Z,6.00
2023-04-18T08:02:05.270Z,4.40
2023-04-18T08:04:34.335Z,3.60
2023-04-18T08:07:03.370Z,4.00
2023-04-18T08:09:31.999Z,4.80
2023-04-18T08:12:01.059Z,4.80
2023-04-18T08:14:31.268Z,5.80
2023-04-18T08:17:01.623Z,4.00
2023-04-18T08:19:30.925Z,5.20
2023-04-18T08:22:10.488Z,4.40
2023-04-18T08:24:40.115Z,4.00
2023-04-18T08:27:09.118Z,4.00
2023-04-18T08:29:39.294Z,3.60
2023-04-18T08:32:09.380Z,4.00
2023-04-18T08:34:38.276Z,5.00
2023-04-18T08:37:07.393Z,5.00
2023-04-18T08:39:36.271Z,4.40
2023-04-18T08:42:07.716Z,4.00
2023-04-18T08:44:37.394Z,3.00
2023-04-18T08:47:09.523Z,7.00
2023-04-18T08:49:38.281Z,7.00
2023-04-18T08:52:12.603Z,7.40
2023-04-18T08:54:44.324Z,8.00
2023-04-18T08:57:16.589Z,7.80
2023-04-18T08:59:49.641Z,7.00
2023-04-18T09:02:23.446Z,5.00
2023-04-18T09:04:53.870Z,5.40
2023-04-18T09:07:30.163Z,6.80
2023-04-18T09:09:59.623Z,6.20
2023-04-18T09:12:32.860Z,6.20
2023-04-18T09:15:13.906Z,5.00
2023-04-18T09:17:49.778Z,6.20
2023-04-18T09:20:34.679Z,5.00
2023-04-18T09:23:05.622Z,6.80
2023-04-18T09:25:40.103Z,6.40
2023-04-18T09:28:24.743Z,9.00
2023-04-18T09:30:54.803Z,8.40
2023-04-18T09:33:29.584Z,6.40
2023-04-18T09:36:16.771Z,5.60
2023-04-18T09:38:46.415Z,8.20
2023-04-18T09:41:19.931Z,4.20
2023-04-18T09:43:50.677Z,5.20
2023-04-18T09:46:22.609Z,6.00
2023-04-18T09:48:53.177Z,7.60
2023-04-18T09:51:21.798Z,6.00
2023-04-18T09:53:51.164Z,9.00
2023-04-18T09:56:25.900Z,6.80
2023-04-18T09:58:58.303Z,7.20
2023-04-18T10:01:29.715Z,6.80
2023-04-18T10:04:04.298Z,7.20
2023-04-18T10:06:38.562Z,7.00
2023-04-18T10:09:10.909Z,9.00
2023-04-18T10:11:39.783Z,7.00
2023-04-18T10:14:12.751Z,5.00
2023-04-18T10:16:43.301Z,6.00
2023-04-18T10:19:31.886Z,4.60
2023-04-18T10:22:01.613Z,5.00
2023-04-18T10:24:48.362Z,5.20
2023-04-18T10:27:17.552Z,5.80
2023-04-18T10:29:50.923Z,0.00
2023-04-18T10:32:20.709Z,7.00
2023-04-18T10:34:53.546Z,7.00
2023-04-18T10:37:22.114Z,5.00
2023-04-18T10:39:57.061Z,5.40
2023-04-18T10:42:58.993Z,5.00
2023-04-18T10:45:31.424Z,5.80
2023-04-18T10:48:30.071Z,5.80
2023-04-18T10:51:24.334Z,6.20
2023-04-18T10:53:55.300Z,4.80
2023-04-18T10:56:26.353Z,7.00
2023-04-18T10:58:57.417Z,6.80
2023-04-18T11:01:32.185Z,5.00
2023-04-18T11:04:02.047Z,6.00
2023-04-18T11:06:32.646Z,6.00
2023-04-18T11:09:11.781Z,5.00
2023-04-18T11:11:41.511Z,5.20
2023-04-18T11:14:10.281Z,7.00
2023-04-18T11:16:39.326Z,9.00
2023-04-18T11:19:23.346Z,6.00
2023-04-18T11:21:54.247Z,6.80
2023-04-18T11:24:24.386Z,7.80
2023-04-18T11:26:55.938Z,11.00
2023-04-18T11:29:24.980Z,7.40
2023-04-18T11:31:58.303Z,5.80
2023-04-18T11:34:30.568Z,8.80
2023-04-18T11:37:00.890Z,9.60
2023-04-18T11:39:29.599Z,9.40
2023-04-18T11:42:01.809Z,12.00
2023-04-18T11:44:30.494Z,10.80
2023-04-18T11:46:59.257Z,6.60
2023-04-18T11:49:29.410Z,9.40
2023-04-18T11:51:58.791Z,3.00
2023-04-18T11:54:39.753Z,9.00
2023-04-18T11:57:20.570Z,8.60
2023-04-18T11:59:51.254Z,9.20
2023-04-18T12:02:20.721Z,11.60
2023-04-18T12:04:57.758Z,11.00
2023-04-18T12:07:38.217Z,10.20
2023-04-18T12:10:10.448Z,10.20
2023-04-18T12:12:48.583Z,8.60
2023-04-18T12:15:18.440Z,8.80
2023-04-18T12:17:49.369Z,9.80
2023-04-18T12:20:18.467Z,9.20
2023-04-18T12:22:49.757Z,9.80
2023-04-18T12:25:26.209Z,12.80
2023-04-18T12:27:59.207Z,10.40
2023-04-18T12:30:29.858Z,8.40
2023-04-18T12:33:01.103Z,10.40
2023-04-18T12:35:31.272Z,10.00
2023-04-18T12:38:03.632Z,9.80
2023-04-18T12:40:33.529Z,10.60
2023-04-18T12:43:03.693Z,10.40
2023-04-18T12:45:32.657Z,11.40
2023-04-18T12:48:02.240Z,7.40
2023-04-18T12:50:31.085Z,8.80
2023-04-18T12:53:01.560Z,10.00
2023-04-18T12:55:30.730Z,7.20
2023-04-18T12:58:01.444Z,9.00
2023-04-18T13:00:33.260Z,10.60
2023-04-18T13:03:11.779Z,10.60
2023-04-18T13:05:42.778Z,8.80
2023-04-18T13:08:17.101Z,9.80
2023-04-18T13:10:47.756Z,10.00
2023-04-18T13:13:18.263Z,11.00
2023-04-18T13:15:47.038Z,22.80
2023-04-18T13:18:16.106Z,20.00
2023-04-18T13:20:45.051Z,10.80
2023-04-18T13:23:14.092Z,11.40
2023-04-18T13:25:44.900Z,12.40
2023-04-18T13:28:13.957Z,10.80
2023-04-18T13:30:43.982Z,8.20
2023-04-18T13:33:13.123Z,6.80
2023-04-18T13:35:42.226Z,9.60
2023-04-18T13:38:11.166Z,11.00
2023-04-18T13:40:39.919Z,7.20
2023-04-18T13:43:11.055Z,12.00
2023-04-18T13:45:39.941Z,10.20
2023-04-18T13:48:13.840Z,8.80
2023-04-18T13:50:43.761Z,8.20
2023-04-18T13:53:12.882Z,7.80
2023-04-18T13:55:42.452Z,8.40
2023-04-18T13:58:11.534Z,7.40
2023-04-18T14:00:40.133Z,10.60
2023-04-18T14:03:09.338Z,7.00
2023-04-18T14:05:39.379Z,10.00
2023-04-18T14:08:08.862Z,7.20
2023-04-18T14:10:37.792Z,10.00
2023-04-18T14:13:06.777Z,9.20
2023-04-18T14:15:35.602Z,9.00
2023-04-18T14:18:05.181Z,8.20
2023-04-18T14:20:35.254Z,10.40
2023-04-18T14:23:06.640Z,8.00
2023-04-18T14:25:35.365Z,9.40
2023-04-18T14:28:09.754Z,9.60
2023-04-18T14:30:39.156Z,10.80
2023-04-18T14:33:09.497Z,11.80
2023-04-18T14:35:38.559Z,16.80
2023-04-18T14:38:09.005Z,13.60
2023-04-18T14:40:38.150Z,9.20
2023-04-18T14:43:07.351Z,12.00
2023-04-18T14:45:36.142Z,14.00
2023-04-18T14:48:06.813Z,10.80
2023-04-18T14:50:38.684Z,12.40
2023-04-18T14:53:09.504Z,13.40
2023-04-18T14:55:38.864Z,12.40
2023-04-18T14:58:08.083Z,11.40
2023-04-18T15:00:37.603Z,11.00
2023-04-18T15:03:09.766Z,11.60
2023-04-18T15:05:42.996Z,10.00
2023-04-18T15:08:14.744Z,11.20
2023-04-18T15:10:44.792Z,10.20
2023-04-18T15:13:14.712Z,11.60
2023-04-18T15:15:43.466Z,7.20
2023-04-18T15:18:13.858Z,20.40
2023-04-18T15:21:03.078Z,9.20
2023-04-18T15:23:34.852Z,11.00
2023-04-18T15:26:04.968Z,11.00
2023-04-18T15:28:34.548Z,12.00
2023-04-18T15:31:03.291Z,10.80
2023-04-18T15:33:32.441Z,13.00
2023-04-18T15:36:01.089Z,11.80
2023-04-18T15:38:33.368Z,13.00
2023-04-18T15:41:03.899Z,12.00
2023-04-18T15:43:32.954Z,10.40
2023-04-18T15:46:02.011Z,11.40
2023-04-18T15:48:34.190Z,11.00
2023-04-18T15:51:03.302Z,14.00
2023-04-18T15:53:32.734Z,12.40
2023-04-18T15:56:02.222Z,12.40
2023-04-18T15:58:32.672Z,14.60
2023-04-18T16:01:02.111Z,15.00
2023-04-18T16:03:31.795Z,14.80
2023-04-18T16:06:00.869Z,13.80
2023-04-18T16:08:32.603Z,13.80
2023-04-18T16:11:02.046Z,35.50
2023-04-18T16:13:38.313Z,48.67
2023-04-18T16:16:07.770Z,24.50
2023-04-18T16:18:36.789Z,15.40
2023-04-18T16:21:05.971Z,16.00
2023-04-18T16:23:35.057Z,15.80
2023-04-18T16:26:03.846Z,14.40
2023-04-18T16:28:37.718Z,15.20
2023-04-18T16:31:06.872Z,13.80
2023-04-18T16:33:35.942Z,12.00
2023-04-18T16:36:05.541Z,12.20
2023-04-18T16:38:34.999Z,13.00
2023-04-18T16:41:04.114Z,15.80
2023-04-18T16:43:36.642Z,16.80
2023-04-18T16:46:05.738Z,19.80
2023-04-18T16:48:37.855Z,19.00
2023-04-18T16:51:06.904Z,14.20
2023-04-18T16:53:36.111Z,12.20
2023-04-18T16:56:05.088Z,12.00
2023-04-18T16:58:35.965Z,12.60
2023-04-18T17:01:05.105Z,11.00
2023-04-18T17:03:34.218Z,23.25
2023-04-18T17:06:03.310Z,13.20
2023-04-18T17:08:33.693Z,10.00
2023-04-18T17:11:05.475Z,20.20
2023-04-18T17:13:36.414Z,13.60
2023-04-18T17:16:06.164Z,13.20
2023-04-18T17:18:35.715Z,10.40
2023-04-18T17:21:04.698Z,12.80
2023-04-18T17:23:34.777Z,12.60
2023-04-18T17:26:03.488Z,12.40
2023-04-18T17:28:33.590Z,13.40
2023-04-18T17:31:03.970Z,8.40
2023-04-18T17:33:33.635Z,12.00
2023-04-18T17:36:03.287Z,12.40
2023-04-18T17:38:34.150Z,10.60
2023-04-18T17:41:04.657Z,16.00
2023-04-18T17:43:33.650Z,23.00
2023-04-18T17:46:03.884Z,28.00
2023-04-18T17:48:33.006Z,27.50
2023-04-18T17:51:02.124Z,26.00
2023-04-18T17:53:32.279Z,23.00
2023-04-18T17:56:01.312Z,17.40
2023-04-18T17:58:30.452Z,17.00
2023-04-18T18:00:59.188Z,18.00
2023-04-18T18:03:29.929Z,16.50
2023-04-18T18:05:58.595Z,23.00
2023-04-18T18:08:27.985Z,23.50
2023-04-18T18:10:56.661Z,21.00
2023-04-18T18:13:25.748Z,16.75
2023-04-18T18:15:55.466Z,19.25
2023-04-18T18:18:31.513Z,20.67
2023-04-18T18:21:00.278Z,20.00
2023-04-18T18:23:29.503Z,21.75
2023-04-18T18:25:58.100Z,23.00
2023-04-18T18:28:27.330Z,25.25
2023-04-18T18:30:56.027Z,8.00
2023-04-18T18:33:25.257Z,28.00
2023-04-18T18:35:57.911Z,16.25
2023-04-18T18:38:27.662Z,18.40
2023-04-18T18:40:56.365Z,22.00
2023-04-18T18:43:26.352Z,20.25
2023-04-18T18:45:55.301Z,22.00
2023-04-18T18:48:24.616Z,22.75
2023-04-18T18:50:53.306Z,26.25
2023-04-18T18:53:23.771Z,25.00
2023-04-18T18:55:52.400Z,23.00
2023-04-18T18:58:21.678Z,23.00
2023-04-18T19:00:51.203Z,18.25
2023-04-18T19:03:21.416Z,20.00
2023-04-18T19:05:50.389Z,16.40
2023-04-18T19:08:19.343Z,16.80
2023-04-18T19:10:49.398Z,15.80
2023-04-18T19:13:20.411Z,13.20
2023-04-18T19:15:49.104Z,14.00
2023-04-18T19:18:19.559Z,14.60
2023-04-18T19:20:50.789Z,15.40
2023-04-18T19:23:19.736Z,17.00
2023-04-18T19:25:49.771Z,13.20
2023-04-18T19:28:19.131Z,18.00
2023-04-18T19:30:48.178Z,29.50
2023-04-18T19:33:17.385Z,29.00
2023-04-18T19:35:46.098Z,19.75
2023-04-18T19:38:15.170Z,16.80
2023-04-18T19:40:44.023Z,15.60
2023-04-18T19:43:14.452Z,32.50
2023-04-18T19:45:43.439Z,40.00
2023-04-18T19:48:12.346Z,36.00
2023-04-18T19:50:42.216Z,21.75
2023-04-18T19:53:12.334Z,15.40
2023-04-18T19:55:41.828Z,15.20
2023-04-18T19:58:11.071Z,17.25
2023-04-18T20:00:41.593Z,16.60
2023-04-18T20:03:11.176Z,15.80
2023-04-18T20:05:40.094Z,15.20
2023-04-18T20:08:10.229Z,14.40
2023-04-18T20:10:39.238Z,17.20
2023-04-18T20:13:08.471Z,13.40
2023-04-18T20:15:37.195Z,16.40
2023-04-18T20:18:07.779Z,17.60
2023-04-18T20:20:36.581Z,16.40
2023-04-18T20:23:05.705Z,15.00
2023-04-18T20:25:34.937Z,14.00
2023-04-18T20:28:04.143Z,12.60
2023-04-18T20:30:32.950Z,13.00
2023-04-18T20:33:02.010Z,13.80
2023-04-18T20:35:34.371Z,13.40
2023-04-18T20:38:03.267Z,11.80
2023-04-18T20:40:33.334Z,13.60
2023-04-18T20:43:03.327Z,13.80
2023-04-18T20:45:34.733Z,14.40
2023-04-18T20:48:03.918Z,16.00
2023-04-18T20:50:33.930Z,10.80
2023-04-18T20:53:04.061Z,14.00
2023-04-18T20:55:32.961Z,13.80
2023-04-18T20:58:02.051Z,15.20
2023-04-18T21:00:33.467Z,13.60
2023-04-18T21:03:02.514Z,15.25
2023-04-18T21:05:31.580Z,19.00
2023-04-18T21:08:01.978Z,16.80
2023-04-18T21:10:30.850Z,16.60
2023-04-18T21:13:00.031Z,17.00
2023-04-18T21:15:28.650Z,15.50
2023-04-18T21:17:58.202Z,19.25
2023-04-18T21:20:26.918Z,17.50
2023-04-18T21:22:55.788Z,14.25
2023-04-18T21:25:25.902Z,20.80
2023-04-18T21:27:54.940Z,18.75
2023-04-18T21:30:23.616Z,14.50
2023-04-18T21:32:52.566Z,22.25
2023-04-18T21:35:23.339Z,24.00
2023-04-18T21:37:53.867Z,28.75
2023-04-18T21:40:22.744Z,30.00
2023-04-18T21:42:53.050Z,28.75
2023-04-18T21:45:21.962Z,32.75
2023-04-18T21:47:51.136Z,32.00
2023-04-18T21:50:19.721Z,32.50
2023-04-18T21:52:48.563Z,31.50
2023-04-18T21:55:17.202Z,33.00
2023-04-18T21:57:46.175Z,32.00
2023-04-18T22:00:17.315Z,33.25
2023-04-18T22:02:47.149Z,33.00
2023-04-18T22:05:16.320Z,33.00
2023-04-18T22:07:56.895Z,30.00
2023-04-18T22:10:26.484Z,33.25
2023-04-18T22:12:56.027Z,34.00
2023-04-18T22:15:27.568Z,33.75
2023-04-18T22:17:56.539Z,33.00
2023-04-18T22:20:27.048Z,33.25
2023-04-18T22:22:56.110Z,33.75
2023-04-18T22:25:24.765Z,34.25
2023-04-18T22:27:53.821Z,33.00
2023-04-18T22:30:22.668Z,33.75
2023-04-18T22:32:52.983Z,32.00
2023-04-18T22:35:21.561Z,32.25
2023-04-18T22:37:50.411Z,33.00
2023-04-18T22:40:19.117Z,33.00
2023-04-18T22:42:48.051Z,32.25
2023-04-18T22:45:16.689Z,33.00
2023-04-18T22:47:46.376Z,32.00
2023-04-18T22:50:16.707Z,32.50
2023-04-18T22:52:46.529Z,32.50
2023-04-18T22:55:16.555Z,30.50
2023-04-18T22:57:45.473Z,27.75
2023-04-18T23:00:14.852Z,32.00
2023-04-18T23:02:44.140Z,31.00
2023-04-18T23:05:15.524Z,30.75
2023-04-18T23:07:46.132Z,28.50
2023-04-18T23:10:14.765Z,28.75
2023-04-18T23:12:43.755Z,26.75
2023-04-18T23:15:12.802Z,28.00
2023-04-18T23:17:41.870Z,27.00
2023-04-18T23:20:12.475Z,29.50
2023-04-18T23:22:41.688Z,27.25
2023-04-18T23:25:11.838Z,25.75
2023-04-18T23:27:40.794Z,26.25
2023-04-18T23:30:10.347Z,27.00
2023-04-18T23:32:39.309Z,25.50
2023-04-18T23:35:08.213Z,27.00
2023-04-18T23:37:37.272Z,24.25
2023-04-18T23:40:07.128Z,27.75
2023-04-18T23:42:37.564Z,27.50
2023-04-18T23:45:07.112Z,26.75
2023-04-18T23:47:36.472Z,26.25
2023-04-18T23:50:05.756Z,26.25
2023-04-18T23:52:34.804Z,24.50
2023-04-18T23:55:03.753Z,24.00
2023-04-18T23:57:34.350Z,23.50
